createdAt,value
2023-01-05T00:03:15.242Z,0.90
2023-01-05T00:08:20.620Z,0.97
2023-01-05T00:13:44.077Z,1.30
2023-01-05T00:19:07.769Z,0.90
2023-01-05T00:24:13.226Z,0.93
2023-01-05T00:29:18.615Z,1.10
2023-01-05T00:34:24.128Z,1.10
2023-01-05T00:39:29.507Z,0.97
2023-01-05T00:44:34.952Z,1.47
2023-01-05T00:49:40.475Z,0.90
2023-01-05T00:54:45.933Z,0.80
2023-01-05T00:59:51.376Z,1.60
2023-01-05T01:04:57.373Z,1.17
2023-01-05T01:10:02.844Z,0.83
2023-01-05T01:15:11.232Z,0.77
2023-01-05T01:20:17.887Z,0.80
2023-01-05T01:25:23.587Z,0.80
2023-01-05T01:30:29.118Z,0.80
2023-01-05T01:35:34.690Z,0.97
2023-01-05T01:40:42.176Z,0.80
2023-01-05T01:45:47.896Z,0.70
2023-01-05T01:50:56.038Z,0.80
2023-01-05T01:56:04.599Z,0.77
2023-01-05T02:01:10.836Z,1.10
2023-01-05T02:06:16.936Z,1.30
2023-01-05T02:12:00.544Z,1.27
2023-01-05T02:17:27.339Z,0.93
2023-01-05T02:22:53.142Z,1.50
2023-01-05T02:28:35.711Z,1.33
2023-01-05T02:33:55.895Z,1.30
2023-01-05T02:39:11.105Z,1.10
2023-01-05T02:44:21.172Z,1.23
2023-01-05T02:49:29.893Z,1.50
2023-01-05T02:54:38.454Z,1.40
2023-01-05T02:59:47.039Z,0.93
2023-01-05T03:05:07.998Z,1.20
2023-01-05T03:10:33.079Z,1.00
2023-01-05T03:15:40.889Z,1.07
2023-01-05T03:20:49.901Z,1.23
2023-01-05T03:26:14.690Z,1.27
2023-01-05T03:31:46.781Z,0.87
2023-01-05T03:36:55.261Z,0.77
2023-01-05T03:42:01.545Z,1.30
2023-01-05T03:47:07.263Z,1.50
2023-01-05T03:52:13.240Z,1.90
2023-01-05T03:57:19.479Z,0.90
2023-01-05T04:02:25.677Z,1.10
2023-01-05T04:07:31.579Z,1.17
2023-01-05T04:12:37.453Z,0.80
2023-01-05T04:17:43.412Z,1.50
2023-01-05T04:22:50.040Z,1.90
2023-01-05T04:27:57.135Z,1.23
2023-01-05T04:33:02.974Z,1.47
2023-01-05T04:38:08.794Z,2.00
2023-01-05T04:43:14.507Z,1.23
2023-01-05T04:48:20.864Z,1.50
2023-01-05T04:53:26.452Z,1.47
2023-01-05T04:58:32.688Z,2.80
2023-01-05T05:03:38.182Z,1.30
2023-01-05T05:08:45.418Z,1.60
2023-01-05T05:13:51.030Z,1.40
2023-01-05T05:18:57.738Z,1.60
2023-01-05T05:24:04.768Z,2.27
2023-01-05T05:29:12.084Z,2.33
2023-01-05T05:34:17.972Z,2.30
2023-01-05T05:39:23.430Z,2.27
2023-01-05T05:44:28.885Z,1.83
2023-01-05T05:49:34.263Z,1.90
2023-01-05T05:54:39.693Z,1.33
2023-01-05T05:59:45.205Z,1.07
2023-01-05T06:04:50.730Z,1.80
2023-01-05T06:09:57.051Z,1.60
2023-01-05T06:15:02.655Z,2.37
2023-01-05T06:20:09.838Z,2.17
2023-01-05T06:25:15.979Z,1.97
2023-01-05T06:30:21.489Z,1.93
2023-01-05T06:35:27.206Z,2.30
2023-01-05T06:40:32.890Z,1.50
2023-01-05T06:45:38.417Z,2.17
2023-01-05T06:50:43.992Z,2.10
2023-01-05T06:55:49.422Z,1.43
2023-01-05T07:00:57.982Z,1.30
2023-01-05T07:06:05.989Z,1.57
2023-01-05T07:11:11.853Z,1.57
2023-01-05T07:16:18.590Z,1.60
2023-01-05T07:21:24.093Z,1.57
2023-01-05T07:26:29.530Z,0.97
2023-01-05T07:31:34.950Z,1.63
2023-01-05T07:36:40.581Z,1.70
2023-01-05T07:41:46.405Z,1.00
2023-01-05T07:46:53.909Z,1.30
2023-01-05T07:51:59.369Z,1.10
2023-01-05T07:57:05.091Z,1.20
2023-01-05T08:02:11.562Z,1.03
2023-01-05T08:07:17.151Z,1.60
2023-01-05T08:12:22.613Z,1.27
2023-01-05T08:17:28.011Z,1.23
2023-01-05T08:22:33.620Z,1.37
2023-01-05T08:27:39.011Z,0.93
2023-01-05T08:32:44.528Z,1.67
2023-01-05T08:37:49.982Z,1.10
2023-01-05T08:42:55.362Z,1.33
2023-01-05T08:48:02.416Z,0.93
2023-01-05T08:53:07.878Z,1.10
2023-01-05T08:58:13.310Z,1.00
2023-01-05T09:03:18.764Z,0.97
2023-01-05T09:08:24.209Z,0.80
2023-01-05T09:13:29.658Z,1.10
2023-01-05T09:18:35.108Z,0.63
2023-01-05T09:23:41.419Z,0.80
2023-01-05T09:28:47.271Z,0.80
2023-01-05T09:33:53.193Z,0.97
2023-01-05T09:38:59.015Z,0.90
2023-01-05T09:44:18.220Z,0.90
2023-01-05T09:49:25.795Z,1.13
2023-01-05T09:54:34.903Z,0.63
2023-01-05T09:59:46.175Z,0.50
2023-01-05T10:04:54.333Z,0.90
2023-01-05T10:10:02.997Z,1.00
2023-01-05T10:15:20.754Z,0.80
2023-01-05T10:20:44.613Z,0.90
2023-01-05T10:26:02.553Z,0.80
2023-01-05T10:31:19.966Z,1.00
2023-01-05T10:42:05.567Z,0.67
2023-01-05T10:47:14.768Z,0.97
2023-01-05T10:52:23.376Z,0.97
2023-01-05T10:57:36.693Z,0.90
2023-01-05T11:02:44.925Z,0.90
2023-01-05T11:07:57.895Z,0.50
2023-01-05T11:13:09.703Z,0.53
2023-01-05T11:18:27.074Z,0.40
2023-01-05T11:23:41.764Z,0.67
2023-01-05T11:29:01.586Z,0.80
2023-01-05T11:34:10.410Z,1.17
2023-01-05T11:39:36.728Z,1.00
2023-01-05T11:44:50.919Z,1.23
2023-01-05T11:50:07.157Z,1.20
2023-01-05T11:55:40.102Z,1.10
2023-01-05T12:01:23.484Z,1.63
2023-01-05T12:06:34.582Z,1.10
2023-01-05T12:11:45.810Z,0.70
2023-01-05T12:16:54.513Z,0.70
2023-01-05T12:22:32.755Z,0.90
2023-01-05T12:28:23.762Z,0.80
2023-01-05T12:39:06.111Z,1.13
2023-01-05T12:44:26.297Z,0.80
2023-01-05T12:49:40.785Z,1.23
2023-01-05T12:54:52.682Z,0.77
2023-01-05T13:00:01.171Z,1.00
2023-01-05T13:05:21.403Z,1.00
2023-01-05T13:10:32.825Z,1.17
2023-01-05T13:15:42.216Z,1.93
2023-01-05T13:20:53.639Z,1.00
2023-01-05T13:26:07.780Z,1.23
2023-01-05T13:31:36.075Z,1.10
2023-01-05T13:36:56.033Z,0.83
2023-01-05T13:42:23.947Z,1.00
2023-01-05T13:47:47.444Z,1.17
2023-01-05T13:53:01.688Z,1.10
2023-01-05T13:58:09.559Z,1.00
2023-01-05T14:03:23.215Z,0.80
2023-01-05T14:08:37.735Z,0.87
2023-01-05T14:13:52.285Z,0.90
2023-01-05T14:19:16.033Z,1.27
2023-01-05T14:24:33.528Z,1.20
2023-01-05T14:29:59.598Z,0.77
2023-01-05T14:35:26.337Z,0.83
2023-01-05T14:40:51.234Z,1.00
2023-01-05T14:46:02.565Z,1.10
2023-01-05T14:51:12.853Z,0.67
2023-01-05T14:56:21.354Z,0.77
2023-01-05T15:07:13.018Z,0.90
2023-01-05T15:12:23.928Z,0.70
2023-01-05T15:17:45.947Z,0.90
2023-01-05T15:23:03.658Z,1.57
2023-01-05T15:28:46.563Z,1.13
2023-01-05T15:33:55.043Z,0.80
2023-01-05T15:39:00.951Z,1.40
2023-01-05T15:44:07.148Z,2.20
2023-01-05T15:49:27.705Z,1.10
2023-01-05T15:54:34.483Z,1.30
2023-01-05T15:59:41.890Z,1.23
2023-01-05T16:04:47.471Z,0.80
2023-01-05T16:09:52.999Z,0.93
2023-01-05T16:15:01.876Z,0.80
2023-01-05T16:20:10.377Z,1.27
2023-01-05T16:25:18.908Z,0.47
2023-01-05T16:30:33.614Z,0.93
2023-01-05T16:35:47.699Z,1.13
2023-01-05T16:41:12.379Z,1.30
2023-01-05T16:46:22.540Z,1.00
2023-01-05T16:51:37.450Z,0.93
2023-01-05T16:56:58.056Z,1.00
2023-01-05T17:02:06.489Z,0.90
2023-01-05T17:07:12.520Z,1.33
2023-01-05T17:12:18.538Z,1.10
2023-01-05T17:17:25.003Z,1.00
2023-01-05T17:22:30.509Z,1.10
2023-01-05T17:27:36.043Z,1.50
2023-01-05T17:32:41.447Z,1.23
2023-01-05T17:37:47.063Z,0.83
2023-01-05T17:42:52.575Z,1.20
2023-01-05T17:47:58.433Z,1.33
2023-01-05T17:53:05.943Z,0.97
2023-01-05T17:58:14.471Z,0.87
2023-01-05T18:03:22.545Z,1.07
2023-01-05T18:08:28.806Z,1.17
2023-01-05T18:13:34.969Z,1.10
2023-01-05T18:18:41.926Z,1.10
2023-01-05T18:23:47.510Z,0.83
2023-01-05T18:28:54.679Z,1.10
2023-01-05T18:34:00.134Z,1.50
2023-01-05T18:39:06.456Z,1.37
2023-01-05T18:44:11.989Z,1.00
2023-01-05T18:49:18.418Z,1.30
2023-01-05T18:54:24.055Z,0.93
2023-01-05T18:59:29.525Z,1.13
2023-01-05T19:04:35.135Z,1.27
2023-01-05T19:09:40.638Z,1.80
2023-01-05T19:14:46.080Z,1.37
2023-01-05T19:19:51.473Z,1.30
2023-01-05T19:24:58.675Z,1.30
2023-01-05T19:30:04.200Z,1.20
2023-01-05T19:35:10.303Z,1.10
2023-01-05T19:40:15.936Z,1.50
2023-01-05T19:45:21.594Z,1.50
2023-01-05T19:50:27.289Z,2.00
2023-01-05T19:55:32.669Z,1.67
2023-01-05T20:00:38.057Z,1.90
2023-01-05T20:05:43.668Z,1.80
2023-01-05T20:10:49.215Z,2.10
2023-01-05T20:15:54.636Z,2.00
2023-01-05T20:21:01.565Z,2.30
2023-01-05T20:26:13.106Z,1.80
2023-01-05T20:31:25.913Z,3.07
2023-01-05T20:36:31.749Z,2.20
2023-01-05T20:41:40.093Z,1.87
2023-01-05T20:46:48.476Z,1.57
2023-01-05T20:51:55.039Z,1.67
2023-01-05T20:57:22.832Z,1.77
2023-01-05T21:02:28.333Z,1.93
2023-01-05T21:07:33.872Z,1.67
2023-01-05T21:12:39.493Z,1.73
2023-01-05T21:17:44.987Z,1.30
2023-01-05T21:22:50.485Z,1.57
2023-01-05T21:27:55.999Z,2.17
2023-01-05T21:33:01.460Z,2.00
2023-01-05T21:38:07.712Z,2.43
2023-01-05T21:43:13.201Z,2.47
2023-01-05T21:48:18.615Z,2.23
2023-01-05T21:53:42.053Z,1.90
2023-01-05T21:58:47.979Z,2.27
2023-01-05T22:03:53.751Z,2.10
2023-01-05T22:08:59.693Z,1.97
2023-01-05T22:14:05.446Z,2.40
2023-01-05T22:19:14.160Z,2.43
2023-01-05T22:24:19.707Z,2.00
2023-01-05T22:29:25.735Z,2.50
2023-01-05T22:34:32.001Z,2.60
2023-01-05T22:39:37.469Z,2.80
2023-01-05T22:44:42.996Z,3.53
2023-01-05T22:49:48.541Z,3.73
2023-01-05T22:54:54.075Z,2.97
2023-01-05T22:59:59.799Z,2.80
2023-01-05T23:05:05.846Z,2.50
2023-01-05T23:10:11.869Z,2.63
2023-01-05T23:15:17.502Z,3.00
2023-01-05T23:20:24.657Z,2.83
2023-01-05T23:25:30.030Z,3.13
2023-01-05T23:30:35.433Z,3.30
2023-01-05T23:35:41.017Z,3.37
2023-01-05T23:40:48.506Z,3.10
2023-01-05T23:45:55.835Z,3.13
2023-01-05T23:51:01.346Z,2.90
2023-01-05T23:56:12.923Z,3.50
